Time;durP1;ratioP1;P1;durP2;ratioP2;P2;SDS_P1;SDS_P2;PMS_P1;PMS_P2;Temp;Humidity;BMP_temperature;BMP_pressure;BME280_temperature;BME280_humidity;BME280_pressure;Samples;Min_cycle;Max_cycle;Signal;HPM_P1;HPM_P2
2023/07/10 00:03:12;;;;;;;9.80;4.80;;;;;;;20.73;57.46;99416.22;223411;182;145884;-66
2023/07/10 00:08:15;;;;;;;8.10;4.50;;;;;;;20.63;57.59;99414.14;223503;183;139025;-64
2023/07/10 00:13:21;;;;;;;4.90;4.40;;;;;;;20.53;57.88;99419.02;223573;183;137361;-67
2023/07/10 00:18:25;;;;;;;7.20;4.10;;;;;;;20.46;57.95;99421.01;223630;183;145876;-67
2023/07/10 00:23:28;;;;;;;7.70;4.40;;;;;;;20.34;58.11;99413.09;223492;182;138240;-63
2023/07/10 00:28:31;;;;;;;8.80;4.60;;;;;;;20.26;58.47;99418.42;223537;181;136710;-65
2023/07/10 00:33:34;;;;;;;7.00;4.00;;;;;;;20.21;58.38;99414.25;223562;181;145825;-62
2023/07/10 00:38:38;;;;;;;6.20;4.20;;;;;;;20.11;58.46;99413.57;223541;181;138451;-65
2023/07/10 00:43:47;;;;;;;6.70;3.90;;;;;;;20.02;58.69;99414.96;223561;181;136963;-65
2023/07/10 00:48:59;;;;;;;4.60;3.60;;;;;;;19.94;58.74;99410.63;223693;181;147135;-64
2023/07/10 00:54:04;;;;;;;5.40;3.70;;;;;;;19.87;59.06;99408.63;223606;182;138496;-65
2023/07/10 00:59:39;;;;;;;5.60;3.50;;;;;;;19.76;59.23;99409.33;223559;181;137208;-64
2023/07/10 01:04:53;;;;;;;4.20;3.70;;;;;;;19.67;59.33;99413.95;223558;181;145888;-65
2023/07/10 01:10:02;;;;;;;4.80;3.90;;;;;;;19.62;59.43;99411.34;223510;181;138488;-64
2023/07/10 01:15:06;;;;;;;5.80;3.60;;;;;;;19.56;59.53;99403.73;223577;181;138096;-65
2023/07/10 01:20:39;;;;;;;6.60;3.80;;;;;;;19.49;59.72;99405.69;223564;181;145505;-65
2023/07/10 01:25:50;;;;;;;5.80;3.70;;;;;;;19.40;59.82;99403.84;223641;181;138345;-65
2023/07/10 01:30:56;;;;;;;10.70;4.10;;;;;;;19.34;59.83;99399.91;223542;181;136809;-64
2023/07/10 01:36:01;;;;;;;5.00;3.30;;;;;;;19.29;60.06;99402.54;223556;181;145785;-66
2023/07/10 01:41:21;;;;;;;5.20;3.60;;;;;;;19.20;60.00;99397.93;223469;182;140418;-65
2023/07/10 01:46:27;;;;;;;8.90;3.30;;;;;;;19.12;60.34;99391.65;223618;181;138349;-64
2023/07/10 01:51:30;;;;;;;5.90;3.40;;;;;;;19.05;60.37;99386.51;223447;181;145382;-65
2023/07/10 01:56:39;;;;;;;6.50;3.30;;;;;;;18.99;60.33;99387.29;223515;181;138335;-65
2023/07/10 02:01:42;;;;;;;6.20;3.30;;;;;;;18.94;60.51;99382.55;223576;181;136758;-64
2023/07/10 02:06:46;;;;;;;6.60;3.20;;;;;;;18.88;60.55;99378.76;223515;181;145765;-63
2023/07/10 02:11:49;;;;;;;6.50;3.50;;;;;;;18.81;60.66;99375.93;223644;181;138371;-64
2023/07/10 02:16:53;;;;;;;8.40;3.20;;;;;;;18.73;60.85;99375.05;223645;181;137642;-66
2023/07/10 02:21:56;;;;;;;5.70;3.50;;;;;;;18.69;60.82;99372.86;223529;181;145220;-66
2023/07/10 02:27:01;;;;;;;4.00;3.00;;;;;;;18.64;60.92;99371.84;223556;181;141747;-67
2023/07/10 02:32:08;;;;;;;7.30;3.50;;;;;;;18.60;61.25;99367.42;223524;181;137114;-67
2023/07/10 02:37:15;;;;;;;8.70;3.70;;;;;;;18.57;61.31;99366.60;223671;181;145001;-66
2023/07/10 02:42:18;;;;;;;8.20;3.90;;;;;;;18.54;61.34;99360.39;223614;181;139706;-67
2023/07/10 02:47:21;;;;;;;8.90;3.60;;;;;;;18.53;61.38;99368.43;223576;182;140781;-66
2023/07/10 02:52:24;;;;;;;7.30;3.10;;;;;;;18.50;61.30;99373.87;223473;181;145347;-66
2023/07/10 02:57:27;;;;;;;7.80;3.30;;;;;;;18.46;61.05;99373.13;223546;181;138281;-66
2023/07/10 03:02:31;;;;;;;6.80;3.40;;;;;;;18.38;60.94;99371.50;223573;181;139340;-67
2023/07/10 03:07:35;;;;;;;6.20;3.30;;;;;;;18.36;61.28;99373.52;223650;181;145885;-64
2023/07/10 03:12:39;;;;;;;9.20;3.50;;;;;;;18.34;61.34;99369.92;223613;181;138330;-65
2023/07/10 03:17:42;;;;;;;7.20;2.90;;;;;;;18.33;61.61;99369.62;223700;181;136452;-65
2023/07/10 03:22:45;;;;;;;4.70;2.60;;;;;;;18.32;61.60;99369.77;223680;181;148483;-64
2023/07/10 03:27:50;;;;;;;4.80;3.10;;;;;;;18.31;61.60;99369.11;223639;180;140326;-64
2023/07/10 03:32:55;;;;;;;4.90;2.80;;;;;;;18.32;61.90;99364.57;223604;181;138885;-64
2023/07/10 03:37:58;;;;;;;6.00;3.40;;;;;;;18.35;62.12;99373.39;223694;181;147501;-66
2023/07/10 03:43:02;;;;;;;10.90;3.20;;;;;;;18.40;62.31;99384.63;223684;181;139003;-67
2023/07/10 03:48:05;;;;;;;4.60;3.10;;;;;;;18.48;62.26;99389.50;223841;181;137807;-67
2023/07/10 03:53:08;;;;;;;9.60;3.30;;;;;;;18.59;62.15;99398.60;223592;181;147471;-65
2023/07/10 04:02:03;;;;;;;10.20;3.60;;;;;;;18.90;61.98;99387.20;220539;193;666560;-63
2023/07/10 04:07:07;;;;;;;7.70;3.30;;;;;;;19.11;62.02;99387.77;223361;185;136379;-66
2023/07/10 04:12:10;;;;;;;7.60;3.10;;;;;;;19.33;61.74;99377.29;223612;183;143369;-64
2023/07/10 04:17:19;;;;;;;7.30;3.20;;;;;;;19.50;61.06;99370.27;223467;184;138026;-65
2023/07/10 04:22:22;;;;;;;5.70;3.10;;;;;;;19.63;61.08;99363.03;223618;183;136907;-64
2023/07/10 04:27:25;;;;;;;11.30;3.70;;;;;;;19.74;60.91;99369.35;223551;183;156175;-64
2023/07/10 04:32:29;;;;;;;8.70;3.10;;;;;;;19.87;60.53;99367.90;223608;182;138932;-64
2023/07/10 04:37:32;;;;;;;9.00;3.40;;;;;;;19.96;60.67;99364.71;223587;181;140124;-66
2023/07/10 04:42:35;;;;;;;6.10;2.50;;;;;;;20.00;59.78;99371.18;223621;181;143539;-65
2023/07/10 04:47:38;;;;;;;4.30;2.60;;;;;;;20.02;58.85;99374.97;223701;182;138367;-63
2023/07/10 04:52:47;;;;;;;24.30;18.30;;;;;;;20.06;58.64;99365.06;223523;182;138806;-66
2023/07/10 04:57:53;;;;;;;7.30;3.60;;;;;;;20.16;58.34;99364.73;223574;182;145294;-67
2023/07/10 05:02:56;;;;;;;8.50;2.70;;;;;;;20.31;58.30;99362.80;223523;182;138864;-67
2023/07/10 05:08:00;;;;;;;37.50;31.70;;;;;;;20.48;57.47;99363.46;223585;182;137078;-66
2023/07/10 05:13:09;;;;;;;6.30;3.80;;;;;;;20.62;56.37;99360.16;223618;179;145964;-66
2023/07/10 05:18:14;;;;;;;5.20;3.20;;;;;;;20.70;56.24;99361.65;223562;183;138849;-65
2023/07/10 05:23:18;;;;;;;34.50;23.70;;;;;;;20.73;56.64;99355.28;223623;183;137403;-65
2023/07/10 05:28:22;;;;;;;11.40;5.40;;;;;;;20.82;57.21;99361.03;223407;183;145294;-65
2023/07/10 05:33:25;;;;;;;12.80;4.30;;;;;;;20.99;57.24;99368.20;223478;183;138375;-65
2023/07/10 05:38:31;;;;;;;14.80;4.20;;;;;;;21.14;56.64;99363.27;223591;183;137164;-65
2023/07/10 05:43:35;;;;;;;159.70;133.10;;;;;;;21.26;56.36;99362.61;223491;182;145278;-65
2023/07/10 05:48:39;;;;;;;18.10;9.40;;;;;;;21.44;56.97;99365.13;223479;183;138510;-66
2023/07/10 05:53:43;;;;;;;13.60;3.80;;;;;;;21.53;55.48;99368.86;223555;183;137139;-67
2023/07/10 05:58:46;;;;;;;13.40;3.20;;;;;;;21.65;55.15;99374.30;223582;182;145348;-67
2023/07/10 06:03:50;;;;;;;17.00;3.70;;;;;;;21.77;55.53;99379.91;223555;182;139882;-66
2023/07/10 06:08:53;;;;;;;15.30;3.70;;;;;;;21.90;54.80;99379.53;223454;183;137000;-66
2023/07/10 06:13:56;;;;;;;14.30;3.30;;;;;;;22.02;52.86;99379.74;223608;182;145241;-66
2023/07/10 06:19:00;;;;;;;12.90;3.70;;;;;;;22.11;52.11;99380.17;223529;183;139051;-66
2023/07/10 06:24:04;;;;;;;13.30;4.40;;;;;;;22.24;52.47;99374.54;223614;182;137303;-64
2023/07/10 06:29:07;;;;;;;16.50;7.60;;;;;;;22.38;52.53;99377.40;223549;182;145213;-65
2023/07/10 06:34:11;;;;;;;11.60;5.70;;;;;;;22.46;51.29;99374.56;223500;183;138890;-66
2023/07/10 06:39:14;;;;;;;11.20;4.40;;;;;;;22.58;51.17;99371.31;223583;182;139295;-66
2023/07/10 06:44:17;;;;;;;9.90;4.40;;;;;;;22.68;50.47;99370.03;223604;183;145597;-67
2023/07/10 06:49:20;;;;;;;18.20;6.40;;;;;;;22.79;50.14;99362.19;223464;182;138824;-66
2023/07/10 06:54:24;;;;;;;9.60;5.20;;;;;;;22.93;50.92;99353.79;223593;183;138172;-66
2023/07/10 06:59:27;;;;;;;15.70;6.30;;;;;;;23.09;50.80;99355.33;223452;182;145743;-69
2023/07/10 07:04:30;;;;;;;14.50;5.70;;;;;;;23.21;50.67;99353.77;223579;183;138811;-66
2023/07/10 07:09:34;;;;;;;18.00;6.30;;;;;;;23.34;50.89;99353.74;223501;183;136765;-65
2023/07/10 07:14:40;;;;;;;354.70;312.70;;;;;;;23.50;51.21;99348.58;223479;182;145834;-65
2023/07/10 07:19:45;;;;;;;57.10;28.60;;;;;;;23.70;51.61;99343.17;223453;183;138307;-63
2023/07/10 07:24:48;;;;;;;18.00;10.10;;;;;;;23.81;51.60;99331.33;223529;182;137341;-63
2023/07/10 08:02:03;;;;;;;16.70;5.40;;;;;;;24.63;45.92;99319.52;221516;192;688514;-64
2023/07/10 08:07:08;;;;;;;33.80;17.80;;;;;;;24.75;45.58;99321.15;223432;183;136405;-65
2023/07/10 08:12:15;;;;;;;27.80;9.30;;;;;;;24.85;45.97;99316.90;223446;185;143796;-64
2023/07/10 08:17:18;;;;;;;23.00;8.50;;;;;;;24.92;45.87;99313.93;223480;182;138843;-65
2023/07/10 08:22:21;;;;;;;21.30;7.30;;;;;;;24.93;46.29;99311.40;223628;182;137234;-65
2023/07/10 08:27:24;;;;;;;35.80;7.20;;;;;;;25.06;46.01;99306.27;223695;182;143211;-65
2023/07/10 08:32:27;;;;;;;29.00;7.80;;;;;;;25.18;46.00;99303.80;223461;182;138179;-66
2023/07/10 08:37:31;;;;;;;33.30;7.70;;;;;;;25.20;46.62;99306.02;223682;181;136667;-65
2023/07/10 08:42:34;;;;;;;52.30;9.40;;;;;;;25.28;46.92;99309.20;223671;180;144361;-65
2023/07/10 08:47:45;;;;;;;77.60;44.80;;;;;;;25.27;46.86;99306.05;223627;180;139426;-64
2023/07/10 08:53:11;;;;;;;64.30;21.40;;;;;;;25.39;45.85;99296.43;223745;181;139938;-65
2023/07/10 09:02:18;;;;;;;49.60;10.00;;;;;;;25.53;45.24;99292.65;221279;189;666444;-65
2023/07/10 09:07:21;;;;;;;35.40;7.00;;;;;;;25.63;44.54;99293.45;223318;185;136458;-67
2023/07/10 09:12:41;;;;;;;43.10;7.00;;;;;;;25.72;43.67;99289.52;223307;185;144081;-66
2023/07/10 09:18:04;;;;;;;10.80;3.80;;;;;;;25.74;43.27;99278.89;223516;184;138717;-65
2023/07/10 09:23:22;;;;;;;25.90;6.00;;;;;;;25.85;42.69;99276.61;223532;183;137066;-65
2023/07/10 09:28:25;;;;;;;17.50;4.80;;;;;;;25.96;42.10;99283.10;223522;183;143696;-67
2023/07/10 09:33:52;;;;;;;18.70;4.40;;;;;;;26.05;41.63;99287.36;223469;183;138966;-64
2023/07/10 09:38:58;;;;;;;13.20;2.90;;;;;;;26.16;40.95;99285.60;223558;184;137978;-65
2023/07/10 09:44:19;;;;;;;9.20;3.30;;;;;;;26.31;40.24;99282.27;223558;183;143181;-66
2023/07/10 09:49:23;;;;;;;8.00;2.60;;;;;;;26.43;38.77;99275.06;223550;183;138401;-65
2023/07/10 09:54:35;;;;;;;5.80;2.30;;;;;;;26.61;38.73;99273.80;223464;183;137163;-66
2023/07/10 09:59:45;;;;;;;7.30;2.50;;;;;;;26.76;38.52;99278.84;223449;184;145922;-67
2023/07/10 10:05:03;;;;;;;6.10;2.40;;;;;;;26.89;38.26;99274.64;223439;183;139886;-65
2023/07/10 10:10:21;;;;;;;6.00;2.10;;;;;;;27.08;37.46;99267.45;223357;183;136278;-65
2023/07/10 10:15:49;;;;;;;7.40;2.30;;;;;;;27.38;37.29;99260.23;223356;184;145308;-65
2023/07/10 10:20:55;;;;;;;3.30;2.00;;;;;;;27.61;36.92;99259.98;223386;184;139112;-66
2023/07/10 10:26:41;;;;;;;10.50;3.10;;;;;;;27.76;36.39;99262.51;223564;183;137115;-65
2023/07/10 10:31:53;;;;;;;5.20;2.00;;;;;;;27.99;35.91;99255.96;223533;183;145645;-66
2023/07/10 10:36:59;;;;;;;8.30;2.50;;;;;;;28.19;35.84;99245.44;223432;183;138543;-65
2023/07/10 10:42:31;;;;;;;7.40;2.70;;;;;;;28.33;35.29;99245.55;223603;183;137170;-66
2023/07/10 10:47:55;;;;;;;8.70;2.10;;;;;;;28.51;35.09;99242.09;223526;183;147181;-66
2023/07/10 10:53:08;;;;;;;5.70;1.90;;;;;;;28.78;34.79;99243.51;223405;183;139314;-64
2023/07/10 10:58:17;;;;;;;6.90;2.10;;;;;;;28.88;34.21;99239.95;223461;183;139638;-65
2023/07/10 11:03:32;;;;;;;5.60;2.10;;;;;;;29.03;34.55;99234.13;223511;181;145271;-64
2023/07/10 11:08:44;;;;;;;6.00;2.40;;;;;;;29.22;34.35;99228.20;223594;181;139924;-64
2023/07/10 11:13:47;;;;;;;7.10;3.80;;;;;;;29.45;34.42;99224.30;223416;181;137550;-63
2023/07/10 11:18:51;;;;;;;7.10;2.50;;;;;;;29.61;34.30;99218.89;223595;181;145751;-65
2023/07/10 11:23:55;;;;;;;6.80;2.10;;;;;;;29.59;33.89;99216.79;223641;181;139292;-64
2023/07/10 11:29:19;;;;;;;6.00;2.40;;;;;;;29.51;33.86;99210.29;223465;182;137365;-64
2023/07/10 11:34:22;;;;;;;9.60;2.50;;;;;;;29.62;33.56;99210.17;223560;181;147183;-64
2023/07/10 11:39:34;;;;;;;6.80;3.30;;;;;;;29.70;33.18;99201.50;223598;181;138370;-64
2023/07/10 11:44:52;;;;;;;10.10;3.30;;;;;;;29.89;32.53;99196.63;223540;181;137631;-64
2023/07/10 11:50:01;;;;;;;5.10;2.10;;;;;;;30.01;31.94;99196.88;223568;181;145855;-64
2023/07/10 11:55:13;;;;;;;6.60;2.40;;;;;;;30.09;32.80;99187.35;223267;181;138678;-65
2023/07/10 12:00:23;;;;;;;7.90;2.70;;;;;;;30.23;33.09;99181.94;223453;214;137231;-65
2023/07/10 12:05:30;;;;;;;5.70;2.50;;;;;;;30.44;32.42;99178.08;223471;181;144983;-65
2023/07/10 12:10:46;;;;;;;4.80;2.20;;;;;;;30.64;31.65;99175.23;223484;181;139544;-65
2023/07/10 12:15:52;;;;;;;8.20;2.80;;;;;;;30.82;31.14;99164.10;223540;181;136397;-65
2023/07/10 12:20:55;;;;;;;5.00;2.50;;;;;;;30.72;30.00;99163.61;223432;181;145411;-65
2023/07/10 12:25:59;;;;;;;6.60;2.60;;;;;;;30.55;31.43;99151.01;223519;181;138320;-65
2023/07/10 12:31:10;;;;;;;5.30;3.00;;;;;;;30.45;32.06;99145.14;223516;181;136999;-63
2023/07/10 12:36:38;;;;;;;8.00;2.50;;;;;;;30.43;31.87;99135.83;223676;181;145951;-64
2023/07/10 12:41:46;;;;;;;8.10;2.80;;;;;;;30.55;31.62;99123.73;223576;182;138604;-64
2023/07/10 12:47:09;;;;;;;16.50;11.00;;;;;;;30.42;30.94;99122.05;223624;181;136718;-64
2023/07/10 12:52:12;;;;;;;16.90;5.00;;;;;;;30.34;31.97;99115.05;223607;181;145290;-64
2023/07/10 12:57:23;;;;;;;6.30;3.00;;;;;;;30.16;31.56;99107.45;223450;181;138353;-65
2023/07/10 13:02:35;;;;;;;7.70;3.10;;;;;;;29.98;31.96;99104.96;223519;181;137303;-65
2023/07/10 13:07:41;;;;;;;9.40;2.60;;;;;;;29.78;32.08;99100.30;223480;181;145981;-64
2023/07/10 13:12:47;;;;;;;7.70;2.80;;;;;;;29.58;32.90;99098.21;223574;181;138276;-64
2023/07/10 13:17:54;;;;;;;43.80;33.40;;;;;;;29.41;32.45;99101.07;223570;182;137687;-64
2023/07/10 13:22:59;;;;;;;8.30;5.10;;;;;;;29.34;32.59;99099.48;223319;181;146211;-64
2023/07/10 13:28:20;;;;;;;10.40;4.30;;;;;;;29.24;33.13;99095.97;223510;182;139127;-64
2023/07/10 13:33:32;;;;;;;4.80;3.30;;;;;;;29.20;32.96;99097.79;223585;181;138026;-65
2023/07/10 13:38:35;;;;;;;9.30;4.10;;;;;;;29.19;31.94;99093.25;223530;181;145027;-65
2023/07/10 13:43:39;;;;;;;7.50;4.00;;;;;;;29.19;32.35;99087.21;223512;181;140219;-65
2023/07/10 13:48:42;;;;;;;6.20;3.70;;;;;;;29.11;32.54;99073.18;223618;181;136462;-64
2023/07/10 13:53:45;;;;;;;6.30;3.70;;;;;;;28.98;32.10;99067.84;223532;181;145824;-64
2023/07/10 13:58:51;;;;;;;7.10;3.80;;;;;;;28.86;31.93;99057.59;223478;181;138902;-64
2023/07/10 14:03:54;;;;;;;5.80;3.80;;;;;;;28.80;32.38;99053.35;223535;181;137014;-64
2023/07/10 14:09:06;;;;;;;6.30;3.70;;;;;;;28.87;32.89;99047.61;223454;181;146831;-64
2023/07/10 14:14:20;;;;;;;6.80;3.50;;;;;;;29.14;33.28;99044.80;223531;181;140335;-64
2023/07/10 14:19:23;;;;;;;;;;;;;;;29.23;32.99;99029.21;223584;181;136684;-64
2023/07/10 14:24:27;;;;;;;6.00;3.60;;;;;;;29.20;32.90;99031.58;223719;181;145465;-64
2023/07/10 14:29:30;;;;;;;5.70;3.90;;;;;;;29.29;32.72;99032.44;223469;181;139136;-64
2023/07/10 14:34:33;;;;;;;6.10;3.80;;;;;;;29.53;33.00;99033.11;223541;181;137387;-64
2023/07/10 14:39:37;;;;;;;9.00;3.90;;;;;;;29.69;32.53;99030.48;223586;181;145700;-64
2023/07/10 14:44:41;;;;;;;5.60;3.50;;;;;;;29.64;31.94;99029.23;223564;181;138823;-65
2023/07/10 14:49:45;;;;;;;4.40;3.40;;;;;;;29.63;31.89;99028.86;223534;181;139715;-64
2023/07/10 14:54:51;;;;;;;5.60;3.70;;;;;;;29.64;32.20;99030.08;223668;181;145071;-64
2023/07/10 14:59:54;;;;;;;5.20;3.70;;;;;;;29.65;31.43;99028.67;223539;181;138216;-65
2023/07/10 15:04:58;;;;;;;9.00;4.00;;;;;;;29.67;31.22;99032.55;223588;182;137400;-64
2023/07/10 15:10:20;;;;;;;6.50;3.70;;;;;;;29.66;30.87;99041.47;223639;181;146834;-64
2023/07/10 15:15:35;;;;;;;5.90;3.80;;;;;;;29.63;31.04;99040.84;223632;182;138679;-64
2023/07/10 15:20:38;;;;;;;6.60;3.90;;;;;;;29.62;32.04;99037.68;223694;181;136625;-64
2023/07/10 15:25:42;;;;;;;6.60;4.70;;;;;;;29.55;32.54;99034.27;223705;181;145213;-64
2023/07/10 15:30:56;;;;;;;6.30;4.00;;;;;;;29.45;32.36;99036.34;223795;181;138419;-64
2023/07/10 15:36:00;;;;;;;;;;;;;;;29.38;32.24;99033.38;223768;181;137636;-65
2023/07/10 15:41:18;;;;;;;14.20;5.50;;;;;;;29.30;32.06;99030.10;223695;181;146220;-69
2023/07/10 15:46:21;;;;;;;252.40;213.60;;;;;;;29.24;31.66;99030.43;223533;181;138325;-64
2023/07/10 15:51:27;;;;;;;10.60;6.50;;;;;;;29.14;31.44;99021.52;223452;181;138013;-65
2023/07/10 15:56:30;;;;;;;6.80;4.60;;;;;;;29.09;31.50;99018.33;223507;181;145151;-64
2023/07/10 16:01:51;;;;;;;8.50;4.70;;;;;;;29.02;31.67;99022.86;223425;182;138822;-64
2023/07/10 16:06:54;;;;;;;5.60;4.30;;;;;;;28.95;31.79;99011.55;223453;181;137372;-64
2023/07/10 16:11:58;;;;;;;138.50;107.70;;;;;;;28.88;31.99;99025.05;223650;181;146539;-64
2023/07/10 16:17:01;;;;;;;18.40;11.00;;;;;;;28.80;32.28;99025.23;223552;181;139914;-64
2023/07/10 19:39:29;;;;;;;10.40;8.00;;;;;;;23.40;53.56;99001.68;222092;191;666183;-66
2023/07/10 19:45:33;;;;;;;7.90;6.00;;;;;;;23.37;53.82;99005.64;221859;193;665857;-64
2023/07/10 19:50:36;;;;;;;9.80;6.10;;;;;;;23.40;53.70;99005.73;223715;183;136356;-65
2023/07/10 19:55:39;;;;;;;10.10;5.80;;;;;;;23.48;53.77;99007.14;223666;183;143718;-63
2023/07/10 20:00:57;;;;;;;9.40;5.90;;;;;;;23.56;53.72;99001.03;223549;183;138444;-63
2023/07/10 20:06:03;;;;;;;9.20;5.60;;;;;;;23.64;53.55;99003.61;223317;184;136436;-63
2023/07/10 20:11:09;;;;;;;10.10;6.10;;;;;;;23.71;53.47;99012.60;222288;183;143327;-63
2023/07/10 20:16:25;;;;;;;9.30;5.90;;;;;;;23.77;53.20;99011.27;223631;183;138332;-63
2023/07/10 20:21:33;;;;;;;8.80;6.60;;;;;;;23.83;53.09;99012.79;223777;181;136503;-64
2023/07/10 20:26:40;;;;;;;8.80;5.90;;;;;;;23.89;53.03;99011.75;223744;181;143981;-65
2023/07/10 20:31:44;;;;;;;8.00;5.90;;;;;;;23.94;52.85;99013.61;223739;181;139467;-64
2023/07/10 20:36:49;;;;;;;7.50;5.70;;;;;;;24.01;52.75;99013.02;223799;181;136916;-65
2023/07/10 20:41:55;;;;;;;21.80;6.20;;;;;;;24.05;52.57;99016.36;223728;181;145271;-64
2023/07/10 20:46:58;;;;;;;13.20;6.00;;;;;;;24.06;52.60;99008.19;223667;181;139066;-65
2023/07/10 20:52:02;;;;;;;9.10;5.50;;;;;;;24.04;52.55;98999.58;223803;181;137596;-64
2023/07/10 20:57:11;;;;;;;9.20;6.10;;;;;;;23.98;52.59;99007.40;223717;181;145199;-65
2023/07/10 21:02:17;;;;;;;10.90;6.00;;;;;;;23.96;52.72;99009.55;223707;181;138261;-65
2023/07/10 21:07:21;;;;;;;9.60;6.60;;;;;;;23.95;52.80;99017.35;223682;181;137083;-63
2023/07/10 21:12:24;;;;;;;12.00;6.60;;;;;;;23.95;52.77;99018.11;223732;181;147665;-65
2023/07/10 21:17:31;;;;;;;7.50;5.70;;;;;;;23.93;52.73;99012.91;223726;181;138305;-65
2023/07/10 21:22:34;;;;;;;10.10;6.20;;;;;;;23.89;52.75;99006.35;223814;181;137507;-65
2023/07/10 21:27:38;;;;;;;8.20;6.10;;;;;;;23.86;52.93;99011.20;223721;181;145687;-68
2023/07/10 21:32:41;;;;;;;8.90;6.30;;;;;;;23.84;53.00;99009.79;223721;181;139641;-69
2023/07/10 21:37:44;;;;;;;10.40;7.40;;;;;;;23.84;53.22;99006.63;223762;181;137648;-66
2023/07/10 21:42:48;;;;;;;13.00;7.40;;;;;;;23.82;53.11;99001.27;223783;180;145900;-65
2023/07/10 21:47:53;;;;;;;12.20;6.80;;;;;;;23.76;53.23;99000.50;223730;181;140639;-67
2023/07/10 21:52:56;;;;;;;10.90;7.20;;;;;;;23.72;53.28;98997.36;223743;181;137835;-67
2023/07/10 21:57:59;;;;;;;15.60;7.20;;;;;;;23.71;53.42;98999.31;223723;181;145123;-65
2023/07/10 22:03:03;;;;;;;11.80;7.90;;;;;;;23.72;53.38;98999.79;223662;181;138700;-63
2023/07/10 22:08:06;;;;;;;13.80;9.50;;;;;;;23.72;53.13;99002.50;223673;181;138138;-64
2023/07/10 22:13:15;;;;;;;17.20;10.90;;;;;;;23.72;53.21;98996.45;223769;181;144999;-65
2023/07/10 22:18:24;;;;;;;18.60;13.50;;;;;;;23.71;53.16;98991.16;223698;181;138123;-65
2023/07/10 22:23:30;;;;;;;17.80;10.50;;;;;;;23.70;53.24;98985.91;223674;181;137494;-65
2023/07/10 22:28:34;;;;;;;13.20;8.50;;;;;;;23.67;53.48;98977.17;223692;181;145920;-65
2023/07/10 22:33:38;;;;;;;10.10;8.00;;;;;;;23.64;53.73;98979.87;223738;181;140213;-64
2023/07/10 22:38:42;;;;;;;11.60;7.70;;;;;;;23.57;54.24;98983.88;223704;181;138489;-65
2023/07/10 22:43:48;;;;;;;;;;;;;;;23.51;54.75;98977.50;223533;181;145566;-64
2023/07/10 22:48:51;;;;;;;12.30;7.50;;;;;;;23.49;55.20;98973.14;223636;181;138264;-64
2023/07/10 22:53:54;;;;;;;13.00;8.40;;;;;;;23.44;55.77;98968.48;223698;181;136932;-65
2023/07/10 22:58:58;;;;;;;11.90;7.50;;;;;;;23.37;56.76;98968.28;223556;181;145983;-67
2023/07/10 23:04:02;;;;;;;10.90;7.80;;;;;;;23.29;57.66;98959.82;223661;181;138878;-66
2023/07/10 23:09:07;;;;;;;11.20;8.00;;;;;;;23.22;57.97;98947.98;223725;181;137824;-66
2023/07/10 23:14:11;;;;;;;12.20;8.50;;;;;;;23.12;58.34;98949.69;223677;181;145547;-65
2023/07/10 23:19:14;;;;;;;14.70;8.80;;;;;;;23.04;58.71;98957.64;223782;181;139389;-64
2023/07/10 23:24:17;;;;;;;12.20;8.10;;;;;;;22.95;59.01;98958.42;223810;181;136786;-63
2023/07/10 23:29:21;;;;;;;13.70;9.00;;;;;;;22.86;59.29;98956.63;223591;181;146014;-63
2023/07/10 23:34:24;;;;;;;15.20;8.50;;;;;;;22.79;59.79;98957.48;223744;181;138902;-66
2023/07/10 23:39:27;;;;;;;12.40;8.60;;;;;;;22.71;60.03;98948.66;223743;181;137182;-64
2023/07/10 23:44:30;;;;;;;13.50;8.30;;;;;;;22.65;60.35;98924.13;223708;181;145588;-64
2023/07/10 23:49:33;;;;;;;13.70;8.30;;;;;;;22.61;60.46;98926.81;223695;181;139754;-64
2023/07/10 23:54:36;;;;;;;12.10;8.20;;;;;;;22.57;60.68;98933.38;223760;181;137035;-64
2023/07/10 23:59:40;;;;;;;12.10;8.20;;;;;;;22.53;60.74;98934.00;223806;181;145818;-64
